Darlington, Indiana
Current Conditions -  °F | °C
As of 9:55 AM on Sunday 21 Dec 2014 (Local Time) from KFKR Reporting Station
Haze Haze  
Wind Chill: 21°   Ceiling: Unl
Heat Index: 30°   Visibility: 5mi
Dew Point: 30°   Wind: 10mph
Humidity: 100%   Direction: 130°SE
Pressure: 30.29"   Gusts: NA
Location:  40.11°N, 86.77°W
Report Text: KFKR 211455Z AUTO 13009KT 5SM BR CLR M01/M01 A3029 RMK AO2 T10101010
Loading
Personal Weather Stations






























Interactive Weather Map New forecast layout! Learn more

10-Day Weather Forecast

Advertisements
Track Severe Weather on mobile